createdAt,value
2023-04-27T00:01:27.898Z,37.15
2023-04-27T00:04:13.314Z,36.77
2023-04-27T00:06:58.771Z,37.14
2023-04-27T00:09:44.006Z,36.52
2023-04-27T00:12:29.449Z,36.84
2023-04-27T00:15:14.654Z,36.91
2023-04-27T00:18:00.255Z,37.22
2023-04-27T00:20:45.611Z,37.03
2023-04-27T00:23:30.922Z,36.76
2023-04-27T00:26:16.270Z,36.84
2023-04-27T00:29:01.602Z,36.52
2023-04-27T00:31:47.163Z,36.43
2023-04-27T00:34:32.489Z,36.52
2023-04-27T00:37:17.740Z,36.94
2023-04-27T00:40:03.135Z,36.60
2023-04-27T00:42:48.639Z,36.45
2023-04-27T00:45:35.769Z,36.70
2023-04-27T00:48:20.851Z,36.52
2023-04-27T00:51:06.225Z,36.68
2023-04-27T00:53:51.752Z,36.82
2023-04-27T00:56:37.169Z,36.93
2023-04-27T00:59:22.578Z,36.99
2023-04-27T01:02:07.880Z,36.71
2023-04-27T01:04:53.310Z,36.56
2023-04-27T01:07:38.562Z,36.70
2023-04-27T01:10:23.962Z,36.82
2023-04-27T01:13:09.468Z,36.89
2023-04-27T01:15:54.938Z,37.14
2023-04-27T01:18:40.317Z,36.69
2023-04-27T01:21:32.286Z,36.73
2023-04-27T01:24:17.392Z,36.87
2023-04-27T01:27:02.846Z,36.52
2023-04-27T01:29:48.250Z,36.76
2023-04-27T01:32:33.541Z,36.84
2023-04-27T01:35:18.775Z,36.64
2023-04-27T01:38:04.078Z,37.01
2023-04-27T01:40:49.477Z,36.49
2023-04-27T01:43:34.994Z,36.87
2023-04-27T01:46:20.312Z,36.89
2023-04-27T01:49:05.678Z,36.45
2023-04-27T01:51:51.091Z,36.49
2023-04-27T01:54:36.508Z,36.84
2023-04-27T01:57:21.312Z,36.76
2023-04-27T02:00:06.737Z,37.05
2023-04-27T02:02:52.323Z,36.88
2023-04-27T02:05:37.306Z,36.99
2023-04-27T02:08:22.394Z,37.02
2023-04-27T02:11:07.699Z,36.97
2023-04-27T02:13:53.064Z,36.55
2023-04-27T02:16:38.497Z,36.61
2023-04-27T02:19:23.849Z,36.69
2023-04-27T02:22:09.433Z,36.44
2023-04-27T02:24:54.921Z,36.59
2023-04-27T02:27:40.335Z,36.74
2023-04-27T02:30:26.342Z,36.89
2023-04-27T02:33:11.590Z,36.53
2023-04-27T02:35:57.190Z,36.70
2023-04-27T02:38:42.564Z,36.99
2023-04-27T02:41:28.148Z,36.95
2023-04-27T02:44:13.561Z,36.66
2023-04-27T02:46:59.059Z,36.73
2023-04-27T02:49:44.429Z,36.76
2023-04-27T02:52:29.489Z,36.93
2023-04-27T02:55:14.691Z,36.73
2023-04-27T02:58:00.030Z,37.15
2023-04-27T03:00:45.610Z,36.87
2023-04-27T03:03:31.250Z,36.87
2023-04-27T03:06:16.316Z,36.64
2023-04-27T03:09:01.592Z,36.61
2023-04-27T03:11:47.037Z,36.88
2023-04-27T03:14:32.278Z,36.70
2023-04-27T03:17:17.586Z,36.74
2023-04-27T03:20:02.782Z,36.92
2023-04-27T03:22:48.276Z,36.90
2023-04-27T03:25:33.623Z,36.87
2023-04-27T03:28:18.993Z,36.76
2023-04-27T03:31:04.336Z,36.52
2023-04-27T03:33:49.570Z,36.83
2023-04-27T03:36:34.911Z,36.74
2023-04-27T03:39:20.292Z,37.20
2023-04-27T03:42:05.948Z,36.81
2023-04-27T03:44:51.285Z,36.59
2023-04-27T03:47:36.698Z,36.77
2023-04-27T03:50:21.782Z,36.80
2023-04-27T03:53:07.024Z,36.43
2023-04-27T03:55:52.467Z,37.04
2023-04-27T03:58:37.785Z,36.42
2023-04-27T04:01:23.101Z,36.96
2023-04-27T04:04:08.711Z,36.56
2023-04-27T04:06:53.950Z,36.92
2023-04-27T04:09:39.397Z,36.70
2023-04-27T04:12:24.722Z,36.85
2023-04-27T04:15:10.105Z,37.31
2023-04-27T04:17:55.063Z,36.67
2023-04-27T04:20:40.206Z,36.66
2023-04-27T04:23:25.444Z,36.72
2023-04-27T04:26:10.905Z,36.65
2023-04-27T04:28:56.128Z,36.92
2023-04-27T04:31:41.157Z,37.00
2023-04-27T04:34:26.687Z,36.75
2023-04-27T04:37:12.004Z,36.45
2023-04-27T04:39:57.484Z,36.85
2023-04-27T04:42:42.783Z,36.60
2023-04-27T04:45:28.957Z,37.06
2023-04-27T04:48:14.354Z,36.84
2023-04-27T04:50:59.683Z,37.08
2023-04-27T04:53:44.971Z,36.63
2023-04-27T04:56:30.250Z,36.92
2023-04-27T04:59:15.560Z,37.35
2023-04-27T05:02:01.359Z,36.99
2023-04-27T05:04:46.682Z,37.24
2023-04-27T05:07:31.999Z,37.28
2023-04-27T05:10:17.386Z,37.08
2023-04-27T05:13:03.484Z,36.96
2023-04-27T05:15:49.799Z,37.03
2023-04-27T05:18:35.158Z,37.32
2023-04-27T05:21:20.354Z,37.40
2023-04-27T05:24:05.646Z,37.66
2023-04-27T05:26:51.008Z,37.85
2023-04-27T05:29:36.355Z,37.27
2023-04-27T05:32:21.771Z,37.50
2023-04-27T05:35:07.239Z,37.59
2023-04-27T05:37:52.522Z,37.22
2023-04-27T05:40:37.835Z,37.33
2023-04-27T05:43:23.169Z,37.04
2023-04-27T05:46:08.321Z,37.36
2023-04-27T05:48:53.685Z,37.50
2023-04-27T05:51:38.928Z,37.84
2023-04-27T05:54:24.554Z,37.10
2023-04-27T05:57:09.615Z,36.88
2023-04-27T05:59:55.008Z,36.87
2023-04-27T06:02:40.522Z,37.73
2023-04-27T06:05:25.535Z,38.43
2023-04-27T06:08:10.617Z,38.56
2023-04-27T06:10:55.646Z,38.64
2023-04-27T06:13:40.938Z,39.08
2023-04-27T06:16:26.308Z,40.04
2023-04-27T06:19:11.870Z,41.86
2023-04-27T06:21:57.268Z,41.88
2023-04-27T06:24:42.564Z,41.47
2023-04-27T06:27:28.027Z,40.86
2023-04-27T06:30:13.309Z,41.91
2023-04-27T06:32:58.753Z,41.48
2023-04-27T06:35:46.481Z,42.22
2023-04-27T06:38:32.205Z,42.07
2023-04-27T06:41:17.742Z,42.36
2023-04-27T06:44:03.118Z,42.15
2023-04-27T06:46:48.283Z,41.83
2023-04-27T06:49:33.832Z,41.86
2023-04-27T06:52:19.189Z,41.45
2023-04-27T06:55:04.637Z,40.93
2023-04-27T06:57:50.137Z,41.52
2023-04-27T07:00:35.579Z,41.13
2023-04-27T07:03:21.414Z,40.46
2023-04-27T07:06:06.463Z,40.88
2023-04-27T07:08:51.959Z,41.32
2023-04-27T07:11:37.289Z,41.22
2023-04-27T07:14:22.832Z,41.44
2023-04-27T07:17:08.106Z,40.85
2023-04-27T07:19:53.319Z,40.84
2023-04-27T07:22:38.808Z,41.25
2023-04-27T07:25:24.250Z,41.29
2023-04-27T07:28:09.561Z,41.15
2023-04-27T07:30:54.691Z,40.74
2023-04-27T07:33:40.211Z,40.84
2023-04-27T07:36:25.728Z,40.92
2023-04-27T07:39:11.103Z,40.70
2023-04-27T07:41:56.534Z,40.52
2023-04-27T07:44:43.102Z,40.54
2023-04-27T07:47:28.544Z,40.35
2023-04-27T07:50:14.157Z,40.11
2023-04-27T07:52:59.529Z,40.58
2023-04-27T07:55:44.590Z,40.53
2023-04-27T07:58:29.925Z,40.48
2023-04-27T08:01:15.311Z,40.28
2023-04-27T08:04:00.838Z,40.38
2023-04-27T08:06:47.062Z,40.20
2023-04-27T08:09:32.540Z,40.21
2023-04-27T08:12:17.937Z,40.02
2023-04-27T08:15:03.294Z,39.73
2023-04-27T08:17:48.820Z,39.95
2023-04-27T08:20:34.182Z,39.89
2023-04-27T08:23:19.647Z,39.73
2023-04-27T08:26:04.623Z,39.35
2023-04-27T08:28:50.110Z,39.68
2023-04-27T08:31:35.772Z,39.69
2023-04-27T08:34:20.901Z,39.27
2023-04-27T08:37:06.272Z,39.47
2023-04-27T08:39:51.460Z,39.25
2023-04-27T08:42:36.759Z,38.65
2023-04-27T08:45:22.983Z,38.77
2023-04-27T08:48:08.376Z,39.23
2023-04-27T08:50:53.819Z,39.06
2023-04-27T08:53:39.153Z,38.83
2023-04-27T08:56:24.690Z,38.83
2023-04-27T08:59:10.038Z,38.61
2023-04-27T09:01:55.323Z,38.50
2023-04-27T09:04:40.897Z,38.62
2023-04-27T09:07:27.416Z,38.56
2023-04-27T09:10:13.701Z,39.10
2023-04-27T09:12:58.935Z,38.55
2023-04-27T09:15:46.267Z,38.05
2023-04-27T09:18:34.192Z,38.05
2023-04-27T09:21:19.452Z,38.19
2023-04-27T09:24:04.735Z,38.07
2023-04-27T09:26:50.101Z,38.09
2023-04-27T09:29:35.547Z,38.07
2023-04-27T09:32:21.110Z,38.10
2023-04-27T09:35:06.586Z,38.09
2023-04-27T09:37:51.842Z,38.24
2023-04-27T09:40:37.359Z,38.20
2023-04-27T09:43:22.794Z,38.15
2023-04-27T09:46:08.313Z,37.76
2023-04-27T09:48:53.544Z,37.84
2023-04-27T09:51:38.978Z,37.94
2023-04-27T09:54:24.433Z,38.03
2023-04-27T09:57:09.739Z,37.97
2023-04-27T09:59:55.216Z,38.09
2023-04-27T10:02:52.575Z,37.74
2023-04-27T10:05:40.249Z,37.84
2023-04-27T10:08:25.315Z,37.59
2023-04-27T10:11:10.785Z,37.88
2023-04-27T10:13:56.076Z,37.44
2023-04-27T10:16:41.315Z,37.61
2023-04-27T10:19:26.603Z,37.26
2023-04-27T10:22:11.988Z,37.55
2023-04-27T10:24:57.562Z,37.58
2023-04-27T10:27:42.924Z,37.64
2023-04-27T10:30:28.046Z,37.52
2023-04-27T10:33:13.536Z,37.62
2023-04-27T10:35:58.930Z,37.30
2023-04-27T10:38:44.448Z,37.34
2023-04-27T10:41:29.751Z,37.65
2023-04-27T10:44:15.268Z,37.78
2023-04-27T10:47:00.670Z,37.21
2023-04-27T10:49:46.049Z,37.54
2023-04-27T10:52:31.641Z,36.61
2023-04-27T10:55:17.007Z,36.48
2023-04-27T10:58:02.299Z,36.70
2023-04-27T11:00:47.716Z,36.29
2023-04-27T11:03:33.007Z,36.74
2023-04-27T11:06:18.481Z,36.48
2023-04-27T11:09:03.821Z,36.35
2023-04-27T11:11:49.335Z,36.51
2023-04-27T11:14:34.491Z,36.20
2023-04-27T11:17:19.990Z,36.32
2023-04-27T11:20:05.323Z,36.34
2023-04-27T11:22:50.758Z,36.47
2023-04-27T11:25:36.311Z,36.02
2023-04-27T11:28:21.595Z,36.14
2023-04-27T11:31:07.000Z,35.96
2023-04-27T11:33:52.220Z,35.78
2023-04-27T11:36:37.969Z,35.99
2023-04-27T11:39:23.444Z,35.89
2023-04-27T11:42:08.981Z,35.75
2023-04-27T11:44:54.422Z,35.73
2023-04-27T11:47:39.805Z,35.53
2023-04-27T11:50:25.240Z,35.75
2023-04-27T11:53:10.559Z,35.47
2023-04-27T11:55:55.805Z,35.54
2023-04-27T11:58:41.183Z,35.35
2023-04-27T12:01:36.905Z,35.56
2023-04-27T12:04:23.489Z,35.27
2023-04-27T12:07:08.551Z,35.45
2023-04-27T12:09:53.999Z,35.82
2023-04-27T12:12:39.431Z,35.56
2023-04-27T12:15:24.666Z,35.34
2023-04-27T12:18:10.172Z,35.81
2023-04-27T12:20:55.418Z,36.07
2023-04-27T12:23:40.399Z,35.85
2023-04-27T12:26:25.575Z,35.70
2023-04-27T12:29:10.998Z,35.20
2023-04-27T12:31:56.367Z,35.53
2023-04-27T12:34:41.746Z,35.98
2023-04-27T12:37:27.275Z,36.13
2023-04-27T12:40:12.435Z,35.84
2023-04-27T12:43:00.478Z,36.12
2023-04-27T12:45:46.107Z,35.56
2023-04-27T12:48:31.427Z,35.71
2023-04-27T12:51:16.797Z,36.21
2023-04-27T12:54:02.114Z,36.29
2023-04-27T12:56:47.599Z,35.89
2023-04-27T12:59:32.806Z,36.27
2023-04-27T13:02:18.179Z,36.70
2023-04-27T13:05:03.656Z,36.59
2023-04-27T13:07:48.816Z,36.93
2023-04-27T13:10:34.434Z,36.17
2023-04-27T13:13:19.726Z,36.25
2023-04-27T13:16:05.136Z,36.26
2023-04-27T13:18:50.553Z,35.94
2023-04-27T13:21:35.918Z,36.09
2023-04-27T13:24:21.473Z,36.18
2023-04-27T13:27:06.671Z,36.41
2023-04-27T13:29:52.196Z,35.91
2023-04-27T13:32:37.689Z,36.22
2023-04-27T13:35:22.821Z,36.17
2023-04-27T13:38:07.994Z,36.08
2023-04-27T13:40:53.348Z,35.60
2023-04-27T13:43:38.850Z,36.01
2023-04-27T13:46:24.373Z,36.15
2023-04-27T13:49:09.794Z,36.29
2023-04-27T13:51:55.208Z,36.24
2023-04-27T13:54:40.290Z,36.80
2023-04-27T13:57:25.796Z,36.56
2023-04-27T14:00:10.836Z,36.80
2023-04-27T14:02:56.597Z,36.55
2023-04-27T14:05:41.827Z,36.32
2023-04-27T14:08:27.211Z,36.37
2023-04-27T14:11:12.823Z,35.79
2023-04-27T14:13:58.158Z,35.85
2023-04-27T14:16:43.851Z,35.90
2023-04-27T14:19:29.073Z,36.10
2023-04-27T14:22:14.451Z,35.89
2023-04-27T14:24:59.903Z,35.92
2023-04-27T14:27:45.336Z,35.91
2023-04-27T14:30:30.720Z,36.00
2023-04-27T14:33:16.189Z,35.62
2023-04-27T14:36:01.565Z,35.69
2023-04-27T14:38:46.869Z,35.75
2023-04-27T14:41:32.179Z,35.16
2023-04-27T14:44:17.515Z,35.42
2023-04-27T14:47:02.811Z,35.04
2023-04-27T14:49:48.234Z,35.03
2023-04-27T14:52:34.128Z,34.43
2023-04-27T14:55:19.501Z,34.54
2023-04-27T14:58:05.172Z,34.47
2023-04-27T15:00:50.384Z,34.30
2023-04-27T15:03:36.022Z,34.02
2023-04-27T15:06:21.195Z,33.68
2023-04-27T15:09:06.647Z,33.98
2023-04-27T15:11:52.135Z,33.51
2023-04-27T15:14:37.448Z,33.30
2023-04-27T15:17:22.855Z,33.39
2023-04-27T15:20:08.272Z,33.48
2023-04-27T15:22:53.765Z,33.49
2023-04-27T15:25:39.051Z,33.26
2023-04-27T15:28:24.496Z,32.42
2023-04-27T15:31:09.898Z,32.21
2023-04-27T15:33:55.233Z,31.53
2023-04-27T15:36:40.848Z,31.23
2023-04-27T15:39:26.108Z,30.76
2023-04-27T15:42:11.453Z,30.49
2023-04-27T15:44:56.611Z,30.01
2023-04-27T15:47:41.982Z,28.20
2023-04-27T15:50:27.097Z,27.26
2023-04-27T15:53:12.369Z,26.50
2023-04-27T15:55:57.709Z,26.81
2023-04-27T15:58:43.204Z,26.95
2023-04-27T16:01:28.709Z,26.71
2023-04-27T16:04:14.176Z,26.28
2023-04-27T16:06:59.390Z,26.13
2023-04-27T16:09:44.542Z,26.06
2023-04-27T16:12:29.753Z,25.61
2023-04-27T16:15:15.226Z,25.40
2023-04-27T16:18:00.611Z,25.98
2023-04-27T16:20:45.748Z,26.10
2023-04-27T16:23:31.251Z,26.57
2023-04-27T16:26:16.517Z,27.29
2023-04-27T16:29:01.831Z,27.23
2023-04-27T16:31:47.248Z,27.40
2023-04-27T16:34:32.491Z,27.83
2023-04-27T16:37:17.914Z,27.46
2023-04-27T16:40:03.333Z,28.91
2023-04-27T16:42:48.702Z,29.62
2023-04-27T16:45:33.992Z,29.49
2023-04-27T16:48:19.362Z,29.89
2023-04-27T16:51:05.052Z,29.24
2023-04-27T16:53:50.199Z,29.64
2023-04-27T16:56:35.576Z,29.52
2023-04-27T16:59:20.751Z,30.50
2023-04-27T17:02:20.863Z,30.57
2023-04-27T17:05:09.396Z,30.77
2023-04-27T17:07:54.675Z,30.89
2023-04-27T17:10:40.072Z,31.15
2023-04-27T17:13:25.300Z,31.23
2023-04-27T17:16:10.809Z,31.37
2023-04-27T17:18:56.234Z,31.30
2023-04-27T17:21:41.620Z,31.04
2023-04-27T17:24:27.177Z,30.93
2023-04-27T17:27:12.606Z,29.93
2023-04-27T17:29:58.101Z,30.26
2023-04-27T17:32:43.253Z,31.03
2023-04-27T17:35:28.500Z,31.42
2023-04-27T17:38:13.890Z,31.69
2023-04-27T17:40:59.006Z,31.55
2023-04-27T17:43:44.327Z,32.09
2023-04-27T17:46:29.441Z,32.49
2023-04-27T17:49:15.065Z,32.66
2023-04-27T17:52:00.242Z,33.00
2023-04-27T17:54:45.282Z,33.52
2023-04-27T17:57:30.815Z,33.99
2023-04-27T18:00:16.130Z,33.68
2023-04-27T18:03:01.717Z,33.78
2023-04-27T18:05:46.761Z,33.55
2023-04-27T18:08:31.643Z,33.51
2023-04-27T18:11:16.757Z,33.81
2023-04-27T18:14:02.038Z,34.09
2023-04-27T18:16:47.490Z,33.78
2023-04-27T18:19:34.601Z,33.94
2023-04-27T18:22:19.698Z,34.31
2023-04-27T18:25:05.013Z,34.42
2023-04-27T18:27:50.313Z,34.27
2023-04-27T18:30:35.696Z,34.54
2023-04-27T18:33:21.038Z,34.36
2023-04-27T18:36:06.185Z,34.33
2023-04-27T18:38:54.754Z,34.72
2023-04-27T18:41:40.343Z,34.92
2023-04-27T18:44:25.598Z,34.81
2023-04-27T18:47:10.604Z,34.69
2023-04-27T18:49:56.024Z,34.48
2023-04-27T18:52:43.719Z,34.76
2023-04-27T18:55:30.035Z,34.54
2023-04-27T18:58:15.211Z,34.71
2023-04-27T19:01:00.762Z,34.96
2023-04-27T19:03:46.164Z,34.47
2023-04-27T19:06:31.554Z,34.90
2023-04-27T19:09:16.962Z,35.01
2023-04-27T19:12:03.388Z,34.94
2023-04-27T19:14:48.903Z,34.74
2023-04-27T19:17:34.502Z,34.84
2023-04-27T19:20:20.302Z,34.50
2023-04-27T19:23:07.723Z,34.92
2023-04-27T19:25:55.140Z,35.09
2023-04-27T19:28:42.729Z,34.58
2023-04-27T19:31:28.134Z,35.08
2023-04-27T19:34:13.329Z,35.39
2023-04-27T19:36:58.752Z,36.83
2023-04-27T19:39:43.968Z,36.10
2023-04-27T19:42:29.467Z,35.97
2023-04-27T19:45:14.800Z,35.75
2023-04-27T19:48:00.393Z,35.46
2023-04-27T19:50:45.718Z,35.25
2023-04-27T19:53:30.992Z,35.70
2023-04-27T19:56:16.606Z,35.22
2023-04-27T19:59:01.966Z,35.00
2023-04-27T20:01:47.513Z,34.96
2023-04-27T20:04:33.356Z,35.04
2023-04-27T20:07:22.037Z,34.84
2023-04-27T20:10:07.369Z,34.77
2023-04-27T20:12:56.563Z,34.88
2023-04-27T20:15:42.240Z,34.83
2023-04-27T20:18:28.043Z,34.59
2023-04-27T20:21:13.307Z,34.96
2023-04-27T20:23:58.679Z,35.29
2023-04-27T20:26:44.227Z,35.22
2023-04-27T20:29:29.570Z,34.94
2023-04-27T20:32:15.113Z,34.91
2023-04-27T20:35:02.077Z,34.82
2023-04-27T20:37:47.224Z,35.53
2023-04-27T20:40:32.531Z,35.27
2023-04-27T20:43:17.861Z,35.30
2023-04-27T20:46:03.328Z,35.15
2023-04-27T20:48:48.776Z,35.35
2023-04-27T20:51:34.081Z,35.16
2023-04-27T20:54:19.497Z,35.30
2023-04-27T20:57:04.726Z,35.36
2023-04-27T20:59:50.095Z,35.01
2023-04-27T21:02:35.597Z,34.98
2023-04-27T21:05:20.919Z,35.03
2023-04-27T21:08:06.080Z,35.56
2023-04-27T21:10:51.278Z,35.23
2023-04-27T21:13:36.787Z,35.44
2023-04-27T21:16:22.021Z,35.25
2023-04-27T21:19:07.213Z,35.25
2023-04-27T21:21:52.718Z,35.55
2023-04-27T21:24:37.970Z,35.35
2023-04-27T21:27:23.374Z,35.47
2023-04-27T21:30:08.806Z,35.27
2023-04-27T21:32:54.516Z,35.38
2023-04-27T21:35:39.868Z,35.28
2023-04-27T21:38:25.218Z,35.45
2023-04-27T21:41:10.292Z,35.38
2023-04-27T21:43:55.415Z,35.44
2023-04-27T21:46:40.893Z,35.74
2023-04-27T21:49:26.207Z,35.57
2023-04-27T21:52:11.667Z,35.42
2023-04-27T21:54:57.218Z,35.40
2023-04-27T21:57:42.253Z,35.38
2023-04-27T22:00:27.684Z,35.11
2023-04-27T22:03:13.277Z,35.34
2023-04-27T22:05:58.333Z,35.37
2023-04-27T22:08:43.938Z,35.38
2023-04-27T22:11:29.122Z,35.20
2023-04-27T22:14:14.753Z,35.19
2023-04-27T22:16:59.871Z,35.32
2023-04-27T22:19:45.865Z,35.24
2023-04-27T22:22:31.201Z,35.16
2023-04-27T22:25:16.404Z,35.56
2023-04-27T22:28:02.025Z,35.28
2023-04-27T22:30:47.248Z,35.71
2023-04-27T22:33:32.485Z,35.75
2023-04-27T22:36:17.677Z,35.60
2023-04-27T22:39:03.203Z,35.49
2023-04-27T22:41:48.611Z,35.24
2023-04-27T22:44:34.093Z,35.38
2023-04-27T22:47:19.725Z,35.23
2023-04-27T22:50:04.811Z,35.64
2023-04-27T22:52:50.138Z,35.54
2023-04-27T22:55:35.582Z,35.51
2023-04-27T22:58:21.063Z,35.81
2023-04-27T23:01:06.615Z,35.77
2023-04-27T23:03:51.917Z,35.31
2023-04-27T23:06:37.165Z,35.81
2023-04-27T23:09:22.482Z,35.64
2023-04-27T23:12:07.923Z,35.49
2023-04-27T23:14:53.361Z,35.53
2023-04-27T23:17:38.648Z,35.57
2023-04-27T23:20:28.708Z,35.38
2023-04-27T23:23:14.468Z,35.65
2023-04-27T23:25:59.838Z,35.97
2023-04-27T23:28:45.142Z,36.14
2023-04-27T23:31:30.512Z,36.25
2023-04-27T23:34:16.200Z,36.63
2023-04-27T23:37:01.861Z,36.97
2023-04-27T23:39:47.210Z,36.64
2023-04-27T23:42:32.604Z,37.04
2023-04-27T23:45:17.719Z,37.12
2023-04-27T23:48:03.249Z,36.53
2023-04-27T23:50:48.658Z,36.73
2023-04-27T23:53:34.004Z,36.61
2023-04-27T23:56:19.536Z,36.58
2023-04-27T23:59:04.888Z,36.62
